createdAt,value
2022-12-28T00:00:34.599Z,101479.97
2022-12-28T00:05:38.554Z,101478.09
2022-12-28T00:11:07.620Z,101474.72
2022-12-28T00:16:09.652Z,101465.13
2022-12-28T00:21:11.516Z,101454.28
2022-12-28T00:26:15.106Z,101435.38
2022-12-28T00:31:19.330Z,101439.88
2022-12-28T00:37:10.104Z,101422.38
2022-12-28T00:41:47.980Z,101422.63
2022-12-28T00:46:52.151Z,101414.94
2022-12-28T00:51:56.419Z,101398.44
2022-12-28T00:56:58.161Z,101386.28
2022-12-28T01:02:02.329Z,101369.69
2022-12-28T01:07:06.849Z,101363.69
2022-12-28T01:12:10.890Z,101362.00
2022-12-28T01:17:13.891Z,101363.84
2022-12-28T01:22:21.455Z,101348.06
2022-12-28T01:27:25.446Z,101325.16
2022-12-28T01:32:29.538Z,101314.56
2022-12-28T01:37:35.869Z,101300.59
2022-12-28T01:42:40.128Z,101281.34
2022-12-28T01:47:45.439Z,101258.38
2022-12-28T01:52:53.758Z,101240.66
2022-12-28T01:58:06.327Z,101224.66
2022-12-28T02:03:16.779Z,101228.84
2022-12-28T02:08:54.713Z,101203.88
2022-12-28T02:13:58.521Z,101191.34
2022-12-28T02:19:05.022Z,101179.75
2022-12-28T02:24:40.623Z,101157.50
2022-12-28T02:29:53.457Z,101131.97
2022-12-28T02:35:16.304Z,101125.53
2022-12-28T02:40:23.758Z,101110.22
2022-12-28T02:46:07.501Z,101104.50
2022-12-28T02:51:25.479Z,101086.53
2022-12-28T02:56:57.810Z,101076.66
2022-12-28T03:02:20.071Z,101085.56
2022-12-28T03:07:51.456Z,101048.59
2022-12-28T03:13:01.665Z,101051.38
2022-12-28T03:18:35.156Z,101042.59
2022-12-28T03:23:57.193Z,101035.50
2022-12-28T03:29:24.409Z,101031.72
2022-12-28T03:34:26.810Z,101043.97
2022-12-28T03:40:02.819Z,100992.38
2022-12-28T03:45:46.432Z,100985.97
2022-12-28T03:50:45.763Z,100973.41
2022-12-28T03:55:50.640Z,100954.59
2022-12-28T04:01:00.330Z,100939.53
2022-12-28T04:06:07.738Z,100913.16
2022-12-28T04:11:10.113Z,100922.91
2022-12-28T04:16:13.526Z,100948.59
2022-12-28T04:21:17.020Z,100929.91
2022-12-28T04:26:21.058Z,100922.63
2022-12-28T04:31:30.851Z,100910.94
2022-12-28T04:36:40.047Z,100883.16
2022-12-28T04:41:47.895Z,100876.88
2022-12-28T04:46:52.147Z,100876.44
2022-12-28T04:51:56.177Z,100860.91
2022-12-28T04:57:00.352Z,100835.78
2022-12-28T05:02:06.062Z,100846.81
2022-12-28T05:07:07.821Z,100845.38
2022-12-28T05:12:09.500Z,100836.16
2022-12-28T05:17:11.221Z,100833.22
2022-12-28T05:22:12.961Z,100834.44
2022-12-28T05:27:19.627Z,100826.19
2022-12-28T05:32:21.473Z,100827.41
2022-12-28T05:37:23.095Z,100834.22
2022-12-28T05:42:24.825Z,100816.22
2022-12-28T05:47:28.818Z,100800.84
2022-12-28T05:52:33.135Z,100798.72
2022-12-28T05:57:39.847Z,100790.47
2022-12-28T06:02:44.588Z,100787.50
2022-12-28T06:07:52.152Z,100788.03
2022-12-28T06:12:56.470Z,100778.94
2022-12-28T06:17:58.217Z,100783.13
2022-12-28T06:23:05.138Z,100769.53
2022-12-28T06:28:10.302Z,100800.09
2022-12-28T06:33:11.989Z,100761.66
2022-12-28T06:38:13.716Z,100750.75
2022-12-28T06:43:20.571Z,100741.63
2022-12-28T06:48:22.359Z,100743.00
2022-12-28T06:53:34.209Z,100777.88
2022-12-28T06:58:41.296Z,100780.22
2022-12-28T07:03:44.191Z,100772.66
2022-12-28T07:08:46.150Z,100755.25
2022-12-28T07:13:52.892Z,100760.28
2022-12-28T07:18:54.816Z,100744.69
2022-12-28T07:23:57.535Z,100765.47
2022-12-28T07:29:04.472Z,100759.41
2022-12-28T07:34:08.433Z,100763.09
2022-12-28T07:39:12.611Z,100752.88
2022-12-28T07:44:17.049Z,100764.56
2022-12-28T07:49:18.787Z,100763.06
2022-12-28T07:54:20.538Z,100766.75
2022-12-28T07:59:31.131Z,100750.03
2022-12-28T08:04:33.271Z,100746.91
2022-12-28T08:09:37.531Z,100745.59
2022-12-28T08:14:41.554Z,100757.41
2022-12-28T08:19:45.774Z,100763.72
2022-12-28T08:24:47.593Z,100762.22
2022-12-28T08:29:51.759Z,100750.53
2022-12-28T08:34:53.579Z,100751.06
2022-12-28T08:39:55.309Z,100753.56
2022-12-28T08:44:58.019Z,100755.06
2022-12-28T08:49:59.935Z,100759.91
2022-12-28T08:55:06.164Z,100768.41
2022-12-28T09:00:11.604Z,100770.59
2022-12-28T09:05:15.693Z,100769.25
2022-12-28T09:10:19.974Z,100782.09
2022-12-28T09:15:27.355Z,100780.72
2022-12-28T09:20:31.583Z,100778.59
2022-12-28T09:25:34.288Z,100786.09
2022-12-28T09:30:41.069Z,100798.41
2022-12-28T09:35:42.876Z,100788.16
2022-12-28T09:40:47.085Z,100816.94
2022-12-28T09:45:53.098Z,100788.34
2022-12-28T09:50:55.355Z,100787.16
2022-12-28T09:56:03.514Z,100780.00
2022-12-28T10:01:12.067Z,100785.84
2022-12-28T10:06:22.158Z,100786.50
2022-12-28T10:11:28.433Z,100804.66
2022-12-28T10:16:36.613Z,100799.66
2022-12-28T10:21:38.394Z,100790.50
2022-12-28T10:26:41.608Z,100791.84
2022-12-28T10:32:14.162Z,100796.19
2022-12-28T10:37:18.990Z,100807.81
2022-12-28T10:42:42.442Z,100784.84
2022-12-28T10:47:46.975Z,100791.00
2022-12-28T10:52:58.097Z,100787.00
2022-12-28T10:58:31.381Z,100780.03
2022-12-28T11:03:37.043Z,100772.53
2022-12-28T11:08:39.871Z,100775.19
2022-12-28T11:13:41.769Z,100763.03
2022-12-28T11:18:43.625Z,100774.34
2022-12-28T11:23:51.892Z,100768.19
2022-12-28T11:28:59.052Z,100754.72
2022-12-28T11:34:07.224Z,100758.03
2022-12-28T11:39:27.352Z,100751.69
2022-12-28T11:44:34.825Z,100744.53
2022-12-28T11:49:39.058Z,100745.38
2022-12-28T11:54:57.617Z,100744.38
2022-12-28T12:00:22.789Z,100745.53
2022-12-28T12:05:37.728Z,100732.53
2022-12-28T12:10:44.802Z,100722.53
2022-12-28T12:15:51.202Z,100724.38
2022-12-28T12:21:15.052Z,100727.03
2022-12-28T12:26:20.990Z,100719.53
2022-12-28T12:31:35.101Z,100712.38
2022-12-28T12:36:55.031Z,100716.03
2022-12-28T12:42:18.930Z,100703.53
2022-12-28T12:48:01.679Z,100694.38
2022-12-28T12:53:21.758Z,100681.22
2022-12-28T12:58:29.515Z,100681.06
2022-12-28T13:03:42.124Z,100679.22
2022-12-28T13:09:03.281Z,100668.41
2022-12-28T13:14:19.919Z,100678.03
2022-12-28T13:19:29.087Z,100664.72
2022-12-28T13:24:35.605Z,100655.72
2022-12-28T13:29:41.168Z,100645.06
2022-12-28T13:34:49.419Z,100646.88
2022-12-28T13:39:51.244Z,100640.72
2022-12-28T13:44:52.908Z,100632.91
2022-12-28T13:50:00.692Z,100638.41
2022-12-28T13:55:13.445Z,100628.59
2022-12-28T14:00:19.929Z,100625.09
2022-12-28T14:05:24.974Z,100626.25
2022-12-28T14:10:27.674Z,100618.25
2022-12-28T14:15:41.589Z,100599.78
2022-12-28T14:20:52.089Z,100596.28
2022-12-28T14:25:55.090Z,100601.91
2022-12-28T14:30:57.047Z,100611.50
2022-12-28T14:36:03.089Z,100591.91
2022-12-28T14:41:05.629Z,100582.91
2022-12-28T14:46:32.237Z,100574.78
2022-12-28T14:51:42.481Z,100576.78
2022-12-28T14:56:49.999Z,100573.66
2022-12-28T15:01:54.415Z,100564.34
2022-12-28T15:06:56.261Z,100582.84
2022-12-28T15:12:15.628Z,100573.03
2022-12-28T15:17:20.627Z,100573.56
2022-12-28T15:22:26.965Z,100566.91
2022-12-28T15:27:32.138Z,100554.09
2022-12-28T15:32:35.886Z,100569.63
2022-12-28T15:37:40.727Z,100556.63
2022-12-28T15:42:46.242Z,100538.34
2022-12-28T15:47:49.149Z,100525.34
2022-12-28T15:52:53.232Z,100493.09
2022-12-28T15:58:02.060Z,100482.13
2022-12-28T16:03:05.954Z,100480.97
2022-12-28T16:08:07.945Z,100481.50
2022-12-28T16:13:09.673Z,100482.84
2022-12-28T16:18:11.349Z,100456.06
2022-12-28T16:23:13.246Z,100453.09
2022-12-28T16:28:20.569Z,100442.78
2022-12-28T16:33:23.294Z,100446.94
2022-12-28T16:38:27.874Z,100441.25
2022-12-28T16:43:32.705Z,100437.03
2022-12-28T16:48:35.516Z,100435.16
2022-12-28T16:53:38.638Z,100432.16
2022-12-28T16:58:43.136Z,100417.66
2022-12-28T17:03:50.475Z,100396.84
2022-12-28T17:08:52.273Z,100386.47
2022-12-28T17:14:05.161Z,100404.78
2022-12-28T17:19:07.472Z,100390.28
2022-12-28T17:24:09.611Z,100380.47
2022-12-28T17:29:13.843Z,100382.13
2022-12-28T17:34:15.691Z,100360.34
2022-12-28T17:39:17.629Z,100360.69
2022-12-28T17:44:21.424Z,100354.72
2022-12-28T17:49:26.022Z,100343.75
2022-12-28T17:54:27.710Z,100329.97
2022-12-28T17:59:29.586Z,100326.00
2022-12-28T18:04:35.525Z,100317.72
2022-12-28T18:09:39.502Z,100296.94
2022-12-28T18:14:41.310Z,100309.78
2022-12-28T18:19:53.412Z,100288.16
2022-12-28T18:24:55.220Z,100272.56
2022-12-28T18:29:59.356Z,100279.06
2022-12-28T18:35:04.009Z,100256.28
2022-12-28T18:40:08.381Z,100240.50
2022-12-28T18:45:12.662Z,100249.50
2022-12-28T18:50:15.655Z,100250.00
2022-12-28T18:55:27.759Z,100239.34
2022-12-28T19:00:29.839Z,100224.41
2022-12-28T19:05:32.483Z,100207.94
2022-12-28T19:10:34.213Z,100205.28
2022-12-28T19:15:38.234Z,100199.31
2022-12-28T19:20:44.492Z,100196.84
2022-12-28T19:25:46.356Z,100184.53
2022-12-28T19:30:50.315Z,100159.75
2022-12-28T19:35:52.091Z,100168.72
2022-12-28T19:40:57.953Z,100155.63
2022-12-28T19:46:10.611Z,100145.81
2022-12-28T19:51:13.682Z,100140.66
2022-12-28T19:56:18.145Z,100129.03
2022-12-28T20:01:26.674Z,100123.72
2022-12-28T20:06:29.849Z,100118.38
2022-12-28T20:11:31.594Z,100112.03
2022-12-28T20:16:37.186Z,100114.72
2022-12-28T20:21:41.965Z,100090.75
2022-12-28T20:26:43.706Z,100068.66
2022-12-28T20:31:45.600Z,100067.84
2022-12-28T20:36:47.911Z,100061.69
2022-12-28T20:42:08.471Z,100061.69
2022-12-28T20:47:12.662Z,100039.56
2022-12-28T20:52:14.449Z,100029.78
2022-12-28T20:57:16.130Z,100038.38
2022-12-28T21:02:17.902Z,100019.75
2022-12-28T21:07:19.808Z,100016.09
2022-12-28T21:12:23.580Z,100021.41
2022-12-28T21:17:30.164Z,99995.44
2022-12-28T21:22:34.200Z,100002.88
2022-12-28T21:27:35.935Z,99993.88
2022-12-28T21:32:40.313Z,100005.00
2022-12-28T21:37:46.871Z,99987.66
2022-12-28T21:42:48.590Z,99981.25
2022-12-28T21:47:50.305Z,99999.41
2022-12-28T21:52:56.744Z,99989.13
2022-12-28T21:58:02.784Z,99975.19
2022-12-28T22:03:25.551Z,99984.00
2022-12-28T22:08:48.467Z,99959.69
2022-12-28T22:13:51.770Z,99962.44
2022-12-28T22:19:04.197Z,99981.50
2022-12-28T22:24:11.839Z,99976.47
2022-12-28T22:29:18.310Z,99969.38
2022-12-28T22:34:20.168Z,99974.97
2022-12-28T22:39:21.893Z,99955.78
2022-12-28T22:44:23.580Z,99956.06
2022-12-28T22:49:27.762Z,99952.84
2022-12-28T22:54:32.406Z,99940.22
2022-12-28T22:59:34.493Z,99940.94
2022-12-28T23:04:41.758Z,99945.69
2022-12-28T23:09:47.268Z,99945.13
2022-12-28T23:15:09.990Z,99926.06
2022-12-28T23:20:31.088Z,99930.88
2022-12-28T23:25:51.443Z,99938.28
2022-12-28T23:30:53.720Z,99922.72
2022-12-28T23:36:00.669Z,99910.47
2022-12-28T23:41:25.007Z,99931.03
2022-12-28T23:46:26.781Z,99909.09
2022-12-28T23:51:31.989Z,99900.44
2022-12-28T23:56:38.602Z,99902.31
